sensor_id;sensor_type;location;lat;lon;timestamp;pressure;altitude;pressure_sealevel;temperature
53412;BMP280;39307;52.870;13.660;2023-05-07T00:01:01;101692.91;;;8.98
53412;BMP280;39307;52.870;13.660;2023-05-07T00:03:28;101693.41;;;8.85
53412;BMP280;39307;52.870;13.660;2023-05-07T00:05:54;101699.63;;;8.84
53412;BMP280;39307;52.870;13.660;2023-05-07T00:08:20;101693.81;;;8.90
53412;BMP280;39307;52.870;13.660;2023-05-07T00:10:46;101694.53;;;8.82
53412;BMP280;39307;52.870;13.660;2023-05-07T00:13:13;101695.97;;;8.94
53412;BMP280;39307;52.870;13.660;2023-05-07T00:15:39;101691.50;;;8.87
53412;BMP280;39307;52.870;13.660;2023-05-07T00:18:05;101693.59;;;8.83
53412;BMP280;39307;52.870;13.660;2023-05-07T00:20:31;101694.31;;;8.93
53412;BMP280;39307;52.870;13.660;2023-05-07T00:22:57;101698.50;;;8.86
53412;BMP280;39307;52.870;13.660;2023-05-07T00:25:24;101693.06;;;8.80
53412;BMP280;39307;52.870;13.660;2023-05-07T00:27:50;101690.97;;;8.83
53412;BMP280;39307;52.870;13.660;2023-05-07T00:30:16;101694.09;;;8.87
53412;BMP280;39307;52.870;13.660;2023-05-07T00:32:42;101698.56;;;8.94
53412;BMP280;39307;52.870;13.660;2023-05-07T00:35:09;101689.78;;;8.95
53412;BMP280;39307;52.870;13.660;2023-05-07T00:37:35;101692.75;;;9.00
53412;BMP280;39307;52.870;13.660;2023-05-07T00:40:01;101689.47;;;8.98
53412;BMP280;39307;52.870;13.660;2023-05-07T00:42:27;101692.31;;;8.87
53412;BMP280;39307;52.870;13.660;2023-05-07T00:44:54;101690.22;;;8.73
53412;BMP280;39307;52.870;13.660;2023-05-07T00:47:20;101695.19;;;8.67
53412;BMP280;39307;52.870;13.660;2023-05-07T00:49:46;101691.19;;;8.72
53412;BMP280;39307;52.870;13.660;2023-05-07T00:52:16;101692.00;;;8.90
53412;BMP280;39307;52.870;13.660;2023-05-07T00:54:43;101680.06;;;9.05
53412;BMP280;39307;52.870;13.660;2023-05-07T00:57:12;101681.69;;;9.06
53412;BMP280;39307;52.870;13.660;2023-05-07T00:59:39;101698.00;;;8.83
53412;BMP280;39307;52.870;13.660;2023-05-07T01:02:06;101701.25;;;8.67
53412;BMP280;39307;52.870;13.660;2023-05-07T01:04:32;101701.88;;;8.96
53412;BMP280;39307;52.870;13.660;2023-05-07T01:06:59;101694.00;;;8.79
53412;BMP280;39307;52.870;13.660;2023-05-07T01:09:28;101696.72;;;8.87
53412;BMP280;39307;52.870;13.660;2023-05-07T01:11:55;101691.72;;;8.93
53412;BMP280;39307;52.870;13.660;2023-05-07T01:14:22;101693.81;;;9.07
53412;BMP280;39307;52.870;13.660;2023-05-07T01:16:48;101706.41;;;8.94
53412;BMP280;39307;52.870;13.660;2023-05-07T01:19:18;101697.66;;;9.03
53412;BMP280;39307;52.870;13.660;2023-05-07T01:21:47;101699.75;;;8.82
53412;BMP280;39307;52.870;13.660;2023-05-07T01:24:15;101697.38;;;8.71
53412;BMP280;39307;52.870;13.660;2023-05-07T01:26:42;101701.84;;;8.79
53412;BMP280;39307;52.870;13.660;2023-05-07T01:29:09;101700.41;;;8.67
53412;BMP280;39307;52.870;13.660;2023-05-07T01:31:36;101699.69;;;8.74
53412;BMP280;39307;52.870;13.660;2023-05-07T01:34:03;101699.16;;;8.71
53412;BMP280;39307;52.870;13.660;2023-05-07T01:36:31;101695.91;;;8.86
53412;BMP280;39307;52.870;13.660;2023-05-07T01:38:59;101703.28;;;8.91
53412;BMP280;39307;52.870;13.660;2023-05-07T01:41:25;101704.97;;;8.82
53412;BMP280;39307;52.870;13.660;2023-05-07T01:43:52;101710.19;;;8.65
53412;BMP280;39307;52.870;13.660;2023-05-07T01:46:19;101706.47;;;8.67
53412;BMP280;39307;52.870;13.660;2023-05-07T01:48:46;101710.81;;;8.76
53412;BMP280;39307;52.870;13.660;2023-05-07T01:51:12;101713.44;;;8.76
53412;BMP280;39307;52.870;13.660;2023-05-07T01:53:39;101725.47;;;8.60
53412;BMP280;39307;52.870;13.660;2023-05-07T01:56:06;101718.94;;;8.73
53412;BMP280;39307;52.870;13.660;2023-05-07T01:58:32;101718.16;;;8.63
53412;BMP280;39307;52.870;13.660;2023-05-07T02:00:59;101708.03;;;8.78
53412;BMP280;39307;52.870;13.660;2023-05-07T02:03:25;101709.16;;;8.75
53412;BMP280;39307;52.870;13.660;2023-05-07T02:05:51;101716.38;;;8.64
53412;BMP280;39307;52.870;13.660;2023-05-07T02:08:17;101728.25;;;8.59
53412;BMP280;39307;52.870;13.660;2023-05-07T02:10:44;101733.31;;;8.60
53412;BMP280;39307;52.870;13.660;2023-05-07T02:13:10;101726.16;;;8.62
53412;BMP280;39307;52.870;13.660;2023-05-07T02:15:36;101732.00;;;8.73
53412;BMP280;39307;52.870;13.660;2023-05-07T02:18:08;101726.94;;;8.89
53412;BMP280;39307;52.870;13.660;2023-05-07T02:20:35;101727.59;;;8.91
53412;BMP280;39307;52.870;13.660;2023-05-07T02:23:01;101723.47;;;8.71
53412;BMP280;39307;52.870;13.660;2023-05-07T02:25:27;101738.09;;;8.64
53412;BMP280;39307;52.870;13.660;2023-05-07T02:27:54;101727.88;;;8.71
53412;BMP280;39307;52.870;13.660;2023-05-07T02:30:20;101735.38;;;8.83
53412;BMP280;39307;52.870;13.660;2023-05-07T02:32:46;101735.97;;;8.94
53412;BMP280;39307;52.870;13.660;2023-05-07T02:35:12;101739.03;;;8.90
53412;BMP280;39307;52.870;13.660;2023-05-07T02:37:39;101742.16;;;8.76
53412;BMP280;39307;52.870;13.660;2023-05-07T02:40:05;101744.84;;;8.84
53412;BMP280;39307;52.870;13.660;2023-05-07T02:42:31;101746.44;;;8.94
53412;BMP280;39307;52.870;13.660;2023-05-07T02:44:58;101746.16;;;8.88
53412;BMP280;39307;52.870;13.660;2023-05-07T02:47:24;101742.16;;;8.76
53412;BMP280;39307;52.870;13.660;2023-05-07T02:49:50;101745.22;;;8.89
53412;BMP280;39307;52.870;13.660;2023-05-07T02:52:17;101748.84;;;8.62
53412;BMP280;39307;52.870;13.660;2023-05-07T02:54:43;101746.59;;;8.66
53412;BMP280;39307;52.870;13.660;2023-05-07T02:57:09;101747.28;;;8.68
53412;BMP280;39307;52.870;13.660;2023-05-07T02:59:35;101752.88;;;8.73
53412;BMP280;39307;52.870;13.660;2023-05-07T03:02:01;101754.34;;;8.59
53412;BMP280;39307;52.870;13.660;2023-05-07T03:04:28;101753.31;;;8.69
53412;BMP280;39307;52.870;13.660;2023-05-07T03:06:54;101747.75;;;8.55
53412;BMP280;39307;52.870;13.660;2023-05-07T03:09:20;101751.06;;;8.57
53412;BMP280;39307;52.870;13.660;2023-05-07T03:11:46;101751.63;;;8.51
53412;BMP280;39307;52.870;13.660;2023-05-07T03:14:13;101755.91;;;8.42
53412;BMP280;39307;52.870;13.660;2023-05-07T03:16:39;101755.75;;;8.53
53412;BMP280;39307;52.870;13.660;2023-05-07T03:19:05;101765.16;;;8.63
53412;BMP280;39307;52.870;13.660;2023-05-07T03:21:32;101763.97;;;8.58
53412;BMP280;39307;52.870;13.660;2023-05-07T03:23:58;101765.06;;;8.56
53412;BMP280;39307;52.870;13.660;2023-05-07T03:26:24;101765.84;;;8.65
53412;BMP280;39307;52.870;13.660;2023-05-07T03:28:50;101759.63;;;8.49
53412;BMP280;39307;52.870;13.660;2023-05-07T03:31:17;101763.97;;;8.58
53412;BMP280;39307;52.870;13.660;2023-05-07T03:33:54;101757.53;;;8.53
53412;BMP280;39307;52.870;13.660;2023-05-07T03:36:21;101766.72;;;8.57
53412;BMP280;39307;52.870;13.660;2023-05-07T03:38:48;101769.03;;;8.60
53412;BMP280;39307;52.870;13.660;2023-05-07T03:41:14;101764.38;;;8.54
53412;BMP280;39307;52.870;13.660;2023-05-07T03:43:41;101772.38;;;8.52
53412;BMP280;39307;52.870;13.660;2023-05-07T03:46:07;101769.19;;;8.58
53412;BMP280;39307;52.870;13.660;2023-05-07T03:48:33;101767.53;;;8.57
53412;BMP280;39307;52.870;13.660;2023-05-07T03:50:59;101763.06;;;8.67
53412;BMP280;39307;52.870;13.660;2023-05-07T03:53:26;101764.88;;;8.66
53412;BMP280;39307;52.870;13.660;2023-05-07T03:55:52;101772.97;;;8.63
53412;BMP280;39307;52.870;13.660;2023-05-07T03:58:18;101777.56;;;8.62
53412;BMP280;39307;52.870;13.660;2023-05-07T04:00:44;101778.78;;;8.58
53412;BMP280;39307;52.870;13.660;2023-05-07T04:03:11;101787.09;;;8.44
53412;BMP280;39307;52.870;13.660;2023-05-07T04:05:37;101782.53;;;8.55
53412;BMP280;39307;52.870;13.660;2023-05-07T04:08:03;101788.41;;;8.57
53412;BMP280;39307;52.870;13.660;2023-05-07T04:10:29;101793.09;;;8.54
53412;BMP280;39307;52.870;13.660;2023-05-07T04:12:56;101788.00;;;8.62
53412;BMP280;39307;52.870;13.660;2023-05-07T04:15:22;101801.63;;;8.56
53412;BMP280;39307;52.870;13.660;2023-05-07T04:17:49;101801.22;;;8.51
53412;BMP280;39307;52.870;13.660;2023-05-07T04:20:16;101798.47;;;8.52
53412;BMP280;39307;52.870;13.660;2023-05-07T04:22:42;101804.41;;;8.45
53412;BMP280;39307;52.870;13.660;2023-05-07T04:25:09;101804.13;;;8.48
53412;BMP280;39307;52.870;13.660;2023-05-07T04:27:35;101804.22;;;8.56
53412;BMP280;39307;52.870;13.660;2023-05-07T04:30:02;101806.63;;;8.66
53412;BMP280;39307;52.870;13.660;2023-05-07T04:32:29;101808.97;;;8.69
53412;BMP280;39307;52.870;13.660;2023-05-07T04:34:56;101803.69;;;8.52
53412;BMP280;39307;52.870;13.660;2023-05-07T04:37:22;101811.19;;;8.64
53412;BMP280;39307;52.870;13.660;2023-05-07T04:39:49;101815.09;;;8.51
53412;BMP280;39307;52.870;13.660;2023-05-07T04:42:16;101814.97;;;8.53
53412;BMP280;39307;52.870;13.660;2023-05-07T04:44:43;101814.56;;;8.48
53412;BMP280;39307;52.870;13.660;2023-05-07T04:47:10;101817.28;;;8.56
53412;BMP280;39307;52.870;13.660;2023-05-07T04:49:37;101808.22;;;8.50
53412;BMP280;39307;52.870;13.660;2023-05-07T04:52:04;101812.09;;;8.46
53412;BMP280;39307;52.870;13.660;2023-05-07T04:54:30;101815.03;;;8.61
53412;BMP280;39307;52.870;13.660;2023-05-07T04:56:56;101815.28;;;8.67
53412;BMP280;39307;52.870;13.660;2023-05-07T04:59:23;101815.41;;;8.39
53412;BMP280;39307;52.870;13.660;2023-05-07T05:01:49;101815.00;;;8.43
53412;BMP280;39307;52.870;13.660;2023-05-07T05:04:15;101828.28;;;8.50
53412;BMP280;39307;52.870;13.660;2023-05-07T05:06:41;101822.13;;;8.41
53412;BMP280;39307;52.870;13.660;2023-05-07T05:09:08;101830.81;;;8.68
53412;BMP280;39307;52.870;13.660;2023-05-07T05:11:34;101821.81;;;8.54
53412;BMP280;39307;52.870;13.660;2023-05-07T05:14:01;101839.59;;;8.41
53412;BMP280;39307;52.870;13.660;2023-05-07T05:16:27;101838.19;;;8.46
53412;BMP280;39307;52.870;13.660;2023-05-07T05:18:53;101834.28;;;8.60
53412;BMP280;39307;52.870;13.660;2023-05-07T05:21:20;101841.44;;;8.58
53412;BMP280;39307;52.870;13.660;2023-05-07T05:23:46;101830.03;;;8.59
53412;BMP280;39307;52.870;13.660;2023-05-07T05:26:12;101840.50;;;8.59
53412;BMP280;39307;52.870;13.660;2023-05-07T05:28:39;101829.66;;;8.54
53412;BMP280;39307;52.870;13.660;2023-05-07T05:31:05;101832.31;;;8.71
53412;BMP280;39307;52.870;13.660;2023-05-07T05:33:31;101837.09;;;8.75
53412;BMP280;39307;52.870;13.660;2023-05-07T05:35:58;101827.41;;;8.94
53412;BMP280;39307;52.870;13.660;2023-05-07T05:38:24;101838.16;;;8.82
53412;BMP280;39307;52.870;13.660;2023-05-07T05:40:50;101831.41;;;8.89
53412;BMP280;39307;52.870;13.660;2023-05-07T05:43:16;101830.19;;;8.84
53412;BMP280;39307;52.870;13.660;2023-05-07T05:45:43;101829.25;;;9.02
53412;BMP280;39307;52.870;13.660;2023-05-07T05:48:09;101841.78;;;8.98
53412;BMP280;39307;52.870;13.660;2023-05-07T05:50:35;101837.56;;;8.97
53412;BMP280;39307;52.870;13.660;2023-05-07T05:53:01;101840.22;;;9.05
53412;BMP280;39307;52.870;13.660;2023-05-07T05:55:28;101840.53;;;9.02
53412;BMP280;39307;52.870;13.660;2023-05-07T05:57:54;101830.69;;;9.14
53412;BMP280;39307;52.870;13.660;2023-05-07T06:00:20;101844.06;;;9.11
53412;BMP280;39307;52.870;13.660;2023-05-07T06:02:47;101837.72;;;9.30
53412;BMP280;39307;52.870;13.660;2023-05-07T06:05:13;101839.47;;;8.95
53412;BMP280;39307;52.870;13.660;2023-05-07T06:07:39;101844.06;;;8.84
53412;BMP280;39307;52.870;13.660;2023-05-07T06:10:06;101845.97;;;8.92
53412;BMP280;39307;52.870;13.660;2023-05-07T06:12:32;101844.84;;;8.94
53412;BMP280;39307;52.870;13.660;2023-05-07T06:14:58;101840.16;;;8.97
53412;BMP280;39307;52.870;13.660;2023-05-07T06:17:24;101839.59;;;9.21
53412;BMP280;39307;52.870;13.660;2023-05-07T06:19:51;101841.50;;;9.19
53412;BMP280;39307;52.870;13.660;2023-05-07T06:22:18;101846.44;;;9.04
53412;BMP280;39307;52.870;13.660;2023-05-07T06:24:44;101848.00;;;9.15
53412;BMP280;39307;52.870;13.660;2023-05-07T06:27:10;101839.44;;;9.39
53412;BMP280;39307;52.870;13.660;2023-05-07T06:29:36;101843.50;;;9.34
53412;BMP280;39307;52.870;13.660;2023-05-07T06:32:13;101850.44;;;9.25
53412;BMP280;39307;52.870;13.660;2023-05-07T06:34:40;101843.56;;;9.42
53412;BMP280;39307;52.870;13.660;2023-05-07T06:37:07;101847.00;;;9.42
53412;BMP280;39307;52.870;13.660;2023-05-07T06:39:33;101846.63;;;9.54
53412;BMP280;39307;52.870;13.660;2023-05-07T06:42:00;101851.41;;;9.59
53412;BMP280;39307;52.870;13.660;2023-05-07T06:44:26;101854.69;;;9.78
53412;BMP280;39307;52.870;13.660;2023-05-07T06:46:53;101847.94;;;9.76
53412;BMP280;39307;52.870;13.660;2023-05-07T06:49:19;101852.97;;;9.86
53412;BMP280;39307;52.870;13.660;2023-05-07T06:51:45;101850.88;;;9.73
53412;BMP280;39307;52.870;13.660;2023-05-07T06:54:12;101868.66;;;9.86
53412;BMP280;39307;52.870;13.660;2023-05-07T06:56:38;101863.16;;;9.89
53412;BMP280;39307;52.870;13.660;2023-05-07T06:59:04;101859.84;;;10.05
53412;BMP280;39307;52.870;13.660;2023-05-07T07:01:30;101852.69;;;10.07
53412;BMP280;39307;52.870;13.660;2023-05-07T07:03:56;101853.69;;;10.13
53412;BMP280;39307;52.870;13.660;2023-05-07T07:06:23;101850.78;;;10.16
53412;BMP280;39307;52.870;13.660;2023-05-07T07:08:49;101857.44;;;10.11
53412;BMP280;39307;52.870;13.660;2023-05-07T07:11:15;101864.00;;;10.15
53412;BMP280;39307;52.870;13.660;2023-05-07T07:13:41;101867.41;;;10.33
53412;BMP280;39307;52.870;13.660;2023-05-07T07:16:07;101863.78;;;10.34
53412;BMP280;39307;52.870;13.660;2023-05-07T07:18:34;101855.69;;;10.44
53412;BMP280;39307;52.870;13.660;2023-05-07T07:21:00;101859.75;;;10.72
53412;BMP280;39307;52.870;13.660;2023-05-07T07:23:26;101856.56;;;10.94
53412;BMP280;39307;52.870;13.660;2023-05-07T07:25:52;101861.91;;;11.17
53412;BMP280;39307;52.870;13.660;2023-05-07T07:28:20;101865.25;;;11.35
53412;BMP280;39307;52.870;13.660;2023-05-07T07:30:47;101863.69;;;11.81
53412;BMP280;39307;52.870;13.660;2023-05-07T07:33:13;101850.72;;;12.11
53412;BMP280;39307;52.870;13.660;2023-05-07T07:35:39;101851.97;;;12.39
53412;BMP280;39307;52.870;13.660;2023-05-07T07:38:05;101853.78;;;12.38
53412;BMP280;39307;52.870;13.660;2023-05-07T07:40:33;101864.84;;;12.79
53412;BMP280;39307;52.870;13.660;2023-05-07T07:43:00;101867.66;;;12.86
53412;BMP280;39307;52.870;13.660;2023-05-07T07:45:27;101878.16;;;12.86
53412;BMP280;39307;52.870;13.660;2023-05-07T07:47:53;101872.56;;;13.19
53412;BMP280;39307;52.870;13.660;2023-05-07T07:50:19;101870.91;;;13.26
53412;BMP280;39307;52.870;13.660;2023-05-07T07:52:45;101864.50;;;13.72
53412;BMP280;39307;52.870;13.660;2023-05-07T07:55:12;101861.84;;;13.94
53412;BMP280;39307;52.870;13.660;2023-05-07T07:57:38;101847.44;;;14.27
53412;BMP280;39307;52.870;13.660;2023-05-07T08:00:05;101853.16;;;14.73
53412;BMP280;39307;52.870;13.660;2023-05-07T08:02:31;101857.72;;;15.07
53412;BMP280;39307;52.870;13.660;2023-05-07T08:04:57;101844.22;;;15.52
53412;BMP280;39307;52.870;13.660;2023-05-07T08:07:24;101849.94;;;15.34
53412;BMP280;39307;52.870;13.660;2023-05-07T08:09:50;101845.34;;;15.63
53412;BMP280;39307;52.870;13.660;2023-05-07T08:12:16;101849.44;;;15.66
53412;BMP280;39307;52.870;13.660;2023-05-07T08:14:42;101848.50;;;15.73
53412;BMP280;39307;52.870;13.660;2023-05-07T08:17:09;101845.72;;;16.02
53412;BMP280;39307;52.870;13.660;2023-05-07T08:19:35;101835.50;;;16.47
53412;BMP280;39307;52.870;13.660;2023-05-07T08:22:02;101842.03;;;16.90
53412;BMP280;39307;52.870;13.660;2023-05-07T08:24:28;101841.38;;;17.22
53412;BMP280;39307;52.870;13.660;2023-05-07T08:26:55;101831.13;;;17.78
53412;BMP280;39307;52.870;13.660;2023-05-07T08:29:21;101820.34;;;18.11
53412;BMP280;39307;52.870;13.660;2023-05-07T08:31:47;101838.66;;;17.68
53412;BMP280;39307;52.870;13.660;2023-05-07T08:34:13;101842.75;;;17.77
53412;BMP280;39307;52.870;13.660;2023-05-07T08:36:39;101841.94;;;17.95
53412;BMP280;39307;52.870;13.660;2023-05-07T08:39:06;101828.06;;;18.13
53412;BMP280;39307;52.870;13.660;2023-05-07T08:41:32;101838.00;;;18.55
53412;BMP280;39307;52.870;13.660;2023-05-07T08:43:59;101836.00;;;18.45
53412;BMP280;39307;52.870;13.660;2023-05-07T08:46:31;101837.66;;;18.33
53412;BMP280;39307;52.870;13.660;2023-05-07T08:48:58;101826.75;;;18.66
53412;BMP280;39307;52.870;13.660;2023-05-07T08:51:24;101832.00;;;18.92
53412;BMP280;39307;52.870;13.660;2023-05-07T08:53:50;101836.59;;;19.15
53412;BMP280;39307;52.870;13.660;2023-05-07T08:56:17;101824.19;;;19.70
53412;BMP280;39307;52.870;13.660;2023-05-07T08:58:44;101828.63;;;19.15
53412;BMP280;39307;52.870;13.660;2023-05-07T09:01:14;101829.25;;;19.17
53412;BMP280;39307;52.870;13.660;2023-05-07T09:03:40;101814.03;;;19.61
53412;BMP280;39307;52.870;13.660;2023-05-07T09:06:07;101835.00;;;19.08
53412;BMP280;39307;52.870;13.660;2023-05-07T09:08:34;101830.09;;;19.48
53412;BMP280;39307;52.870;13.660;2023-05-07T09:11:01;101819.66;;;19.84
53412;BMP280;39307;52.870;13.660;2023-05-07T09:13:28;101826.16;;;19.20
53412;BMP280;39307;52.870;13.660;2023-05-07T09:15:55;101827.91;;;19.39
53412;BMP280;39307;52.870;13.660;2023-05-07T09:18:23;101832.63;;;18.94
53412;BMP280;39307;52.870;13.660;2023-05-07T09:20:51;101845.59;;;18.39
53412;BMP280;39307;52.870;13.660;2023-05-07T09:23:17;101849.25;;;17.87
53412;BMP280;39307;52.870;13.660;2023-05-07T09:25:43;101851.97;;;17.28
53412;BMP280;39307;52.870;13.660;2023-05-07T09:28:09;101851.25;;;17.53
53412;BMP280;39307;52.870;13.660;2023-05-07T09:30:36;101837.81;;;17.67
53412;BMP280;39307;52.870;13.660;2023-05-07T09:33:03;101840.66;;;17.60
53412;BMP280;39307;52.870;13.660;2023-05-07T09:35:31;101824.00;;;18.17
53412;BMP280;39307;52.870;13.660;2023-05-07T09:38:00;101831.50;;;18.45
53412;BMP280;39307;52.870;13.660;2023-05-07T09:40:28;101821.72;;;18.39
53412;BMP280;39307;52.870;13.660;2023-05-07T09:42:55;101825.63;;;18.24
53412;BMP280;39307;52.870;13.660;2023-05-07T09:45:28;101821.38;;;18.10
53412;BMP280;39307;52.870;13.660;2023-05-07T09:47:56;101825.63;;;18.24
53412;BMP280;39307;52.870;13.660;2023-05-07T09:50:48;101818.69;;;18.36
53412;BMP280;39307;52.870;13.660;2023-05-07T09:53:17;101819.00;;;18.71
53412;BMP280;39307;52.870;13.660;2023-05-07T09:55:43;101818.16;;;18.83
53412;BMP280;39307;52.870;13.660;2023-05-07T09:58:13;101812.13;;;18.45
53412;BMP280;39307;52.870;13.660;2023-05-07T10:00:41;101815.94;;;18.74
53412;BMP280;39307;52.870;13.660;2023-05-07T10:03:09;101815.13;;;19.23
53412;BMP280;39307;52.870;13.660;2023-05-07T10:05:36;101803.78;;;19.71
53412;BMP280;39307;52.870;13.660;2023-05-07T10:08:02;101809.28;;;19.76
53412;BMP280;39307;52.870;13.660;2023-05-07T10:10:29;101822.75;;;19.13
53412;BMP280;39307;52.870;13.660;2023-05-07T10:12:57;101823.03;;;18.86
53412;BMP280;39307;52.870;13.660;2023-05-07T10:15:23;101807.78;;;18.69
53412;BMP280;39307;52.870;13.660;2023-05-07T10:17:49;101814.25;;;18.92
53412;BMP280;39307;52.870;13.660;2023-05-07T10:20:17;101808.50;;;19.38
53412;BMP280;39307;52.870;13.660;2023-05-07T10:22:47;101814.00;;;19.74
53412;BMP280;39307;52.870;13.660;2023-05-07T10:25:25;101816.28;;;19.34
53412;BMP280;39307;52.870;13.660;2023-05-07T10:27:57;101811.66;;;19.53
53412;BMP280;39307;52.870;13.660;2023-05-07T10:30:47;101813.91;;;20.11
53412;BMP280;39307;52.870;13.660;2023-05-07T10:33:18;101811.16;;;20.17
53412;BMP280;39307;52.870;13.660;2023-05-07T10:35:47;101814.16;;;20.03
53412;BMP280;39307;52.870;13.660;2023-05-07T10:38:13;101812.03;;;20.11
53412;BMP280;39307;52.870;13.660;2023-05-07T10:40:40;101813.91;;;20.11
53412;BMP280;39307;52.870;13.660;2023-05-07T10:43:07;101810.34;;;20.41
53412;BMP280;39307;52.870;13.660;2023-05-07T10:45:33;101814.81;;;20.23
53412;BMP280;39307;52.870;13.660;2023-05-07T10:48:13;101832.44;;;19.32
53412;BMP280;39307;52.870;13.660;2023-05-07T10:50:41;101816.31;;;19.58
53412;BMP280;39307;52.870;13.660;2023-05-07T10:55:51;101805.09;;;20.70
53412;BMP280;39307;52.870;13.660;2023-05-07T10:58:27;101795.75;;;21.25
53412;BMP280;39307;52.870;13.660;2023-05-07T11:01:01;101790.69;;;21.53
53412;BMP280;39307;52.870;13.660;2023-05-07T11:03:28;101809.31;;;21.24
53412;BMP280;39307;52.870;13.660;2023-05-07T11:06:15;101803.63;;;21.49
53412;BMP280;39307;52.870;13.660;2023-05-07T11:08:57;101806.38;;;21.32
53412;BMP280;39307;52.870;13.660;2023-05-07T11:11:49;101799.06;;;20.21
53412;BMP280;39307;52.870;13.660;2023-05-07T11:17:08;101834.34;;;19.56
53412;BMP280;39307;52.870;13.660;2023-05-07T11:19:56;101807.97;;;19.85
53412;BMP280;39307;52.870;13.660;2023-05-07T11:25:02;101809.53;;;20.58
53412;BMP280;39307;52.870;13.660;2023-05-07T11:27:29;101809.00;;;20.85
53412;BMP280;39307;52.870;13.660;2023-05-07T11:29:56;101799.66;;;20.65
53412;BMP280;39307;52.870;13.660;2023-05-07T11:32:23;101803.03;;;20.89
53412;BMP280;39307;52.870;13.660;2023-05-07T11:34:53;101808.56;;;20.88
53412;BMP280;39307;52.870;13.660;2023-05-07T11:37:23;101813.63;;;21.07
53412;BMP280;39307;52.870;13.660;2023-05-07T11:39:50;101804.59;;;21.26
53412;BMP280;39307;52.870;13.660;2023-05-07T11:44:52;101806.75;;;21.35
53412;BMP280;39307;52.870;13.660;2023-05-07T11:47:19;101801.78;;;21.39
53412;BMP280;39307;52.870;13.660;2023-05-07T11:49:50;101801.88;;;21.43
53412;BMP280;39307;52.870;13.660;2023-05-07T11:52:18;101802.38;;;21.52
53412;BMP280;39307;52.870;13.660;2023-05-07T11:54:52;101794.91;;;21.83
53412;BMP280;39307;52.870;13.660;2023-05-07T11:57:19;101799.75;;;21.63
53412;BMP280;39307;52.870;13.660;2023-05-07T11:59:45;101809.97;;;21.08
53412;BMP280;39307;52.870;13.660;2023-05-07T12:02:14;101802.72;;;20.97
53412;BMP280;39307;52.870;13.660;2023-05-07T12:04:40;101803.38;;;21.40
53412;BMP280;39307;52.870;13.660;2023-05-07T12:07:15;101798.50;;;21.37
53412;BMP280;39307;52.870;13.660;2023-05-07T12:09:42;101796.47;;;21.50
53412;BMP280;39307;52.870;13.660;2023-05-07T12:12:08;101803.13;;;21.70
53412;BMP280;39307;52.870;13.660;2023-05-07T12:14:41;101814.19;;;21.27
53412;BMP280;39307;52.870;13.660;2023-05-07T12:17:10;101813.38;;;21.44
53412;BMP280;39307;52.870;13.660;2023-05-07T12:19:37;101805.25;;;21.39
53412;BMP280;39307;52.870;13.660;2023-05-07T12:22:05;101807.81;;;21.28
53412;BMP280;39307;52.870;13.660;2023-05-07T12:24:47;101799.94;;;21.50
53412;BMP280;39307;52.870;13.660;2023-05-07T12:27:14;101803.31;;;20.82
53412;BMP280;39307;52.870;13.660;2023-05-07T12:29:48;101802.09;;;21.13
53412;BMP280;39307;52.870;13.660;2023-05-07T12:32:22;101794.41;;;21.63
53412;BMP280;39307;52.870;13.660;2023-05-07T12:34:51;101802.28;;;21.58
53412;BMP280;39307;52.870;13.660;2023-05-07T12:37:23;101794.34;;;22.03
53412;BMP280;39307;52.870;13.660;2023-05-07T12:40:04;101806.84;;;21.80
53412;BMP280;39307;52.870;13.660;2023-05-07T12:42:35;101794.25;;;21.99
53412;BMP280;39307;52.870;13.660;2023-05-07T12:45:17;101797.41;;;22.18
53412;BMP280;39307;52.870;13.660;2023-05-07T12:47:47;101789.28;;;22.13
53412;BMP280;39307;52.870;13.660;2023-05-07T12:50:16;101796.34;;;22.42
53412;BMP280;39307;52.870;13.660;2023-05-07T12:52:48;101789.47;;;22.46
53412;BMP280;39307;52.870;13.660;2023-05-07T12:55:16;101789.06;;;22.26
53412;BMP280;39307;52.870;13.660;2023-05-07T12:57:53;101791.03;;;22.08
53412;BMP280;39307;52.870;13.660;2023-05-07T13:00:39;101800.38;;;21.88
53412;BMP280;39307;52.870;13.660;2023-05-07T13:03:05;101788.59;;;21.55
53412;BMP280;39307;52.870;13.660;2023-05-07T13:05:32;101782.97;;;21.34
53412;BMP280;39307;52.870;13.660;2023-05-07T13:07:58;101788.88;;;21.07
53412;BMP280;39307;52.870;13.660;2023-05-07T13:10:25;101784.41;;;20.89
53412;BMP280;39307;52.870;13.660;2023-05-07T13:12:51;101791.56;;;20.89
53412;BMP280;39307;52.870;13.660;2023-05-07T13:15:18;101786.03;;;20.73
53412;BMP280;39307;52.870;13.660;2023-05-07T13:17:44;101772.53;;;21.03
53412;BMP280;39307;52.870;13.660;2023-05-07T13:20:11;101780.41;;;20.81
53412;BMP280;39307;52.870;13.660;2023-05-07T13:22:37;101778.88;;;20.55
53412;BMP280;39307;52.870;13.660;2023-05-07T13:25:04;101779.22;;;20.41
53412;BMP280;39307;52.870;13.660;2023-05-07T13:27:30;101783.41;;;20.13
53412;BMP280;39307;52.870;13.660;2023-05-07T13:29:57;101788.00;;;20.00
53412;BMP280;39307;52.870;13.660;2023-05-07T13:32:23;101780.00;;;19.82
53412;BMP280;39307;52.870;13.660;2023-05-07T13:34:49;101799.41;;;19.83
53412;BMP280;39307;52.870;13.660;2023-05-07T13:37:15;101784.97;;;19.96
53412;BMP280;39307;52.870;13.660;2023-05-07T13:39:41;101783.00;;;19.92
53412;BMP280;39307;52.870;13.660;2023-05-07T13:42:08;101786.59;;;19.73
53412;BMP280;39307;52.870;13.660;2023-05-07T13:44:34;101774.16;;;19.74
53412;BMP280;39307;52.870;13.660;2023-05-07T13:47:00;101792.50;;;19.45
53412;BMP280;39307;52.870;13.660;2023-05-07T13:49:26;101778.75;;;19.54
53412;BMP280;39307;52.870;13.660;2023-05-07T13:51:52;101783.63;;;19.57
53412;BMP280;39307;52.870;13.660;2023-05-07T13:54:19;101786.91;;;19.59
53412;BMP280;39307;52.870;13.660;2023-05-07T13:56:45;101789.16;;;19.32
53412;BMP280;39307;52.870;13.660;2023-05-07T13:59:11;101790.66;;;19.15
53412;BMP280;39307;52.870;13.660;2023-05-07T14:01:37;101798.84;;;19.07
53412;BMP280;39307;52.870;13.660;2023-05-07T14:04:06;101798.03;;;19.07